createdAt,value
2019-01-24T00:00:49.510Z,991.2
2019-01-24T00:01:50.881Z,991.2
2019-01-24T00:02:52.221Z,991.2
2019-01-24T00:03:53.586Z,991.3
2019-01-24T00:04:54.942Z,991.2
2019-01-24T00:05:56.282Z,991.2
2019-01-24T00:06:57.635Z,991.2
2019-01-24T00:07:58.985Z,991.2
2019-01-24T00:09:00.341Z,991.3
2019-01-24T00:10:01.697Z,991.3
2019-01-24T00:11:03.051Z,991.3
2019-01-24T00:12:04.402Z,991.3
2019-01-24T00:13:05.783Z,991.3
2019-01-24T00:14:07.142Z,991.3
2019-01-24T00:15:08.520Z,991.3
2019-01-24T00:16:09.983Z,991.3
2019-01-24T00:17:11.331Z,991.3
2019-01-24T00:18:12.711Z,991.4
2019-01-24T00:19:14.086Z,991.4
2019-01-24T00:20:15.482Z,991.3
2019-01-24T00:21:16.867Z,991.4
2019-01-24T00:22:18.257Z,991.3
2019-01-24T00:23:19.640Z,991.3
2019-01-24T00:24:21.025Z,991.3
2019-01-24T00:25:22.372Z,991.4
2019-01-24T00:26:23.792Z,991.4
2019-01-24T00:27:25.149Z,991.4
2019-01-24T00:28:26.495Z,991.4
2019-01-24T00:29:27.837Z,991.4
2019-01-24T00:30:29.236Z,991.5
2019-01-24T00:31:30.588Z,991.5
2019-01-24T00:32:31.959Z,991.5
2019-01-24T00:33:33.555Z,991.5
2019-01-24T00:34:34.697Z,991.6
2019-01-24T00:35:36.130Z,991.5
2019-01-24T00:36:37.517Z,991.6
2019-01-24T00:37:38.885Z,991.5
2019-01-24T00:38:40.257Z,991.6
2019-01-24T00:39:41.640Z,991.6
2019-01-24T00:40:43.015Z,991.6
2019-01-24T00:42:23.917Z,991.6
2019-01-24T00:43:25.256Z,991.6
2019-01-24T00:44:26.617Z,991.6
2019-01-24T00:45:27.951Z,991.7
2019-01-24T00:46:29.296Z,991.7
2019-01-24T00:47:30.651Z,991.7
2019-01-24T00:48:32.008Z,991.8
2019-01-24T00:49:33.346Z,991.8
2019-01-24T00:50:34.688Z,991.8
2019-01-24T00:51:36.028Z,991.8
2019-01-24T00:52:37.415Z,991.8
2019-01-24T00:53:38.761Z,991.8
2019-01-24T00:54:40.106Z,991.8
2019-01-24T00:55:41.450Z,991.9
2019-01-24T00:56:42.802Z,991.9
2019-01-24T00:57:44.144Z,991.9
2019-01-24T00:58:45.491Z,991.9
2019-01-24T00:59:46.853Z,992.0
2019-01-24T01:00:48.187Z,992.0
2019-01-24T01:01:49.541Z,992.0
2019-01-24T01:02:50.896Z,992.0
2019-01-24T01:03:52.230Z,992.0
2019-01-24T01:04:53.576Z,992.0
2019-01-24T01:05:54.923Z,992.1
2019-01-24T01:06:56.271Z,992.0
2019-01-24T01:07:57.616Z,992.0
2019-01-24T01:08:58.958Z,992.1
2019-01-24T01:10:00.312Z,992.1
2019-01-24T01:11:01.647Z,992.1
2019-01-24T01:12:03.001Z,992.1
2019-01-24T01:13:04.339Z,992.1
2019-01-24T01:14:05.699Z,992.1
2019-01-24T01:15:07.073Z,992.2
2019-01-24T01:16:08.429Z,992.2
2019-01-24T01:17:09.761Z,992.2
2019-01-24T01:18:11.116Z,992.2
2019-01-24T01:19:12.463Z,992.2
2019-01-24T01:20:13.812Z,992.2
2019-01-24T01:21:15.154Z,992.2
2019-01-24T01:22:16.573Z,992.2
2019-01-24T01:23:17.923Z,992.2
2019-01-24T01:24:19.266Z,992.3
2019-01-24T01:25:20.613Z,992.3
2019-01-24T01:26:22.005Z,992.2
2019-01-24T01:27:23.346Z,992.4
2019-01-24T01:28:24.682Z,992.3
2019-01-24T01:29:26.023Z,992.4
2019-01-24T01:30:27.382Z,992.4
2019-01-24T01:31:28.731Z,992.3
2019-01-24T01:32:30.072Z,992.4
2019-01-24T01:33:31.417Z,992.4
2019-01-24T01:34:36.241Z,992.4
2019-01-24T01:35:34.077Z,992.4
2019-01-24T01:36:35.427Z,992.4
2019-01-24T01:37:36.772Z,992.4
2019-01-24T01:38:38.118Z,992.5
2019-01-24T01:39:39.462Z,992.4
2019-01-24T01:40:40.806Z,992.5
2019-01-24T01:41:42.154Z,992.5
2019-01-24T01:42:43.492Z,992.5
2019-01-24T01:43:44.837Z,992.6
2019-01-24T01:44:46.187Z,992.6
2019-01-24T01:45:47.531Z,992.6
2019-01-24T01:46:48.883Z,992.6
2019-01-24T01:47:50.227Z,992.6
2019-01-24T01:48:51.577Z,992.6
2019-01-24T01:49:52.916Z,992.6
2019-01-24T01:50:54.258Z,992.6
2019-01-24T01:51:55.607Z,992.6
2019-01-24T01:52:56.943Z,992.6
2019-01-24T01:53:58.303Z,992.6
2019-01-24T01:54:59.634Z,992.6
2019-01-24T01:56:00.982Z,992.6
2019-01-24T01:57:02.332Z,992.6
2019-01-24T01:58:03.678Z,992.6
2019-01-24T01:59:05.029Z,992.7
2019-01-24T02:00:06.374Z,992.6
2019-01-24T02:01:07.725Z,992.7
2019-01-24T02:02:09.063Z,992.7
2019-01-24T02:03:10.422Z,992.7
2019-01-24T02:04:12.347Z,992.8
2019-01-24T02:05:13.713Z,992.7
2019-01-24T02:06:15.043Z,992.7
2019-01-24T02:07:16.388Z,992.7
2019-01-24T02:08:17.744Z,992.7
2019-01-24T02:09:19.092Z,992.7
2019-01-24T02:10:20.444Z,992.7
2019-01-24T02:11:21.783Z,992.7
2019-01-24T02:12:23.132Z,992.7
2019-01-24T02:13:24.472Z,992.7
2019-01-24T02:14:25.840Z,992.7
2019-01-24T02:15:27.168Z,992.7
2019-01-24T02:16:28.507Z,992.7
2019-01-24T02:17:29.856Z,992.7
2019-01-24T02:18:31.199Z,992.7
2019-01-24T02:19:32.567Z,992.7
2019-01-24T02:20:33.909Z,992.7
2019-01-24T02:21:35.285Z,992.7
2019-01-24T02:22:37.530Z,992.7
2019-01-24T02:23:37.909Z,992.7
2019-01-24T02:24:39.252Z,992.7
2019-01-24T02:25:40.596Z,992.6
2019-01-24T02:26:41.947Z,992.6
2019-01-24T02:27:43.287Z,992.6
2019-01-24T02:28:44.628Z,992.6
2019-01-24T02:29:45.974Z,992.6
2019-01-24T02:30:47.313Z,992.6
2019-01-24T02:31:48.659Z,992.6
2019-01-24T02:32:50.013Z,992.6
2019-01-24T02:33:51.358Z,992.6
2019-01-24T02:34:52.698Z,992.6
2019-01-24T02:35:54.049Z,992.6
2019-01-24T02:36:55.392Z,992.6
2019-01-24T02:37:56.735Z,992.6
2019-01-24T02:38:58.125Z,992.6
2019-01-24T02:39:59.463Z,992.7
2019-01-24T02:41:00.809Z,992.6
2019-01-24T02:42:02.162Z,992.6
2019-01-24T02:43:03.502Z,992.7
2019-01-24T02:44:04.849Z,992.6
2019-01-24T02:45:06.199Z,992.7
2019-01-24T02:46:07.548Z,992.7
2019-01-24T02:47:08.889Z,992.7
2019-01-24T02:48:10.239Z,992.7
2019-01-24T02:49:11.584Z,992.7
2019-01-24T02:50:12.918Z,992.7
2019-01-24T02:51:14.263Z,992.8
2019-01-24T02:52:15.614Z,992.7
2019-01-24T02:53:16.954Z,992.7
2019-01-24T02:54:18.300Z,992.8
2019-01-24T02:55:19.646Z,992.8
2019-01-24T02:56:20.989Z,992.8
2019-01-24T02:57:22.334Z,992.8
2019-01-24T02:58:23.679Z,992.8
2019-01-24T02:59:25.104Z,992.8
2019-01-24T03:00:26.334Z,992.8
2019-01-24T03:01:27.676Z,992.9
2019-01-24T03:02:29.846Z,992.9
2019-01-24T03:03:31.198Z,992.8
2019-01-24T03:04:32.547Z,992.8
2019-01-24T03:05:33.884Z,992.9
2019-01-24T03:06:35.234Z,992.9
2019-01-24T03:07:36.582Z,992.9
2019-01-24T03:08:37.918Z,992.9
2019-01-24T03:09:39.269Z,992.9
2019-01-24T03:10:40.623Z,992.9
2019-01-24T03:11:41.959Z,992.9
2019-01-24T03:12:43.294Z,992.9
2019-01-24T03:13:44.645Z,992.9
2019-01-24T03:14:45.985Z,992.9
2019-01-24T03:15:47.342Z,992.9
2019-01-24T03:16:48.680Z,992.9
2019-01-24T03:17:50.035Z,993.0
2019-01-24T03:18:51.369Z,993.0
2019-01-24T03:19:52.713Z,993.0
2019-01-24T03:20:54.058Z,993.0
2019-01-24T03:21:55.399Z,993.0
2019-01-24T03:22:56.745Z,993.0
2019-01-24T03:23:58.087Z,993.0
2019-01-24T03:24:59.438Z,993.0
2019-01-24T03:26:00.788Z,993.0
2019-01-24T03:27:02.141Z,993.0
2019-01-24T03:28:03.487Z,993.0
2019-01-24T03:29:04.823Z,993.1
2019-01-24T03:30:06.176Z,993.1
2019-01-24T03:31:07.524Z,993.1
2019-01-24T03:32:08.860Z,993.1
2019-01-24T03:33:10.220Z,993.1
2019-01-24T03:34:11.559Z,993.1
2019-01-24T03:35:12.905Z,993.1
2019-01-24T03:36:14.255Z,993.1
2019-01-24T03:37:15.599Z,993.1
2019-01-24T03:38:16.946Z,993.1
2019-01-24T03:39:18.318Z,993.1
2019-01-24T03:40:19.656Z,993.1
2019-01-24T03:41:21.005Z,993.2
2019-01-24T03:42:22.348Z,993.1
2019-01-24T03:43:23.690Z,993.1
2019-01-24T03:44:25.037Z,993.1
2019-01-24T03:45:26.379Z,993.1
2019-01-24T03:46:27.730Z,993.2
2019-01-24T03:47:29.073Z,993.2
2019-01-24T03:48:30.418Z,993.2
2019-01-24T03:49:31.759Z,993.1
2019-01-24T03:50:33.115Z,993.1
2019-01-24T03:51:34.453Z,993.2
2019-01-24T03:52:35.799Z,993.2
2019-01-24T03:53:37.151Z,993.2
2019-01-24T03:54:38.495Z,993.2
2019-01-24T03:55:39.844Z,993.2
2019-01-24T03:56:41.185Z,993.3
2019-01-24T03:57:42.553Z,993.2
2019-01-24T03:58:43.905Z,993.2
2019-01-24T03:59:45.250Z,993.3
2019-01-24T04:00:46.590Z,993.3
2019-01-24T04:01:47.950Z,993.3
2019-01-24T04:02:49.301Z,993.3
2019-01-24T04:03:50.648Z,993.3
2019-01-24T04:04:51.991Z,993.3
2019-01-24T04:05:53.330Z,993.3
2019-01-24T04:06:54.685Z,993.4
2019-01-24T04:07:56.034Z,993.3
2019-01-24T04:08:57.386Z,993.4
2019-01-24T04:09:58.727Z,993.3
2019-01-24T04:11:00.074Z,993.4
2019-01-24T04:12:01.418Z,993.4
2019-01-24T04:13:02.770Z,993.4
2019-01-24T04:14:04.116Z,993.4
2019-01-24T04:15:05.465Z,993.4
2019-01-24T04:16:06.811Z,993.4
2019-01-24T04:17:08.163Z,993.4
2019-01-24T04:18:09.518Z,993.4
2019-01-24T04:19:10.859Z,993.4
2019-01-24T04:20:12.194Z,993.3
2019-01-24T04:21:13.543Z,993.4
2019-01-24T04:22:14.896Z,993.4
2019-01-24T04:23:16.235Z,993.4
2019-01-24T04:24:17.586Z,993.4
2019-01-24T04:25:18.950Z,993.4
2019-01-24T04:26:20.270Z,993.5
2019-01-24T04:27:21.619Z,993.5
2019-01-24T04:28:22.975Z,993.5
2019-01-24T04:29:24.319Z,993.5
2019-01-24T04:30:26.395Z,993.5
2019-01-24T04:31:27.789Z,993.4
2019-01-24T04:32:29.130Z,993.5
2019-01-24T04:33:30.475Z,993.5
2019-01-24T04:34:31.821Z,993.4
2019-01-24T04:35:33.168Z,993.4
2019-01-24T04:36:34.515Z,993.5
2019-01-24T04:37:35.854Z,993.5
2019-01-24T04:38:37.206Z,993.5
2019-01-24T04:39:38.554Z,993.5
2019-01-24T04:40:39.893Z,993.5
2019-01-24T04:41:41.244Z,993.5
2019-01-24T04:42:42.580Z,993.5
2019-01-24T04:43:43.924Z,993.5
2019-01-24T04:44:45.296Z,993.5
2019-01-24T04:45:46.642Z,993.5
2019-01-24T04:46:47.978Z,993.5
2019-01-24T04:47:49.331Z,993.5
2019-01-24T04:48:50.670Z,993.5
2019-01-24T04:49:52.019Z,993.5
2019-01-24T04:50:53.366Z,993.5
2019-01-24T04:51:54.704Z,993.5
2019-01-24T04:52:56.052Z,993.5
2019-01-24T04:53:57.398Z,993.6
2019-01-24T04:54:58.755Z,993.5
2019-01-24T04:56:00.101Z,993.6
2019-01-24T04:57:01.434Z,993.6
2019-01-24T04:58:02.779Z,993.6
2019-01-24T04:59:04.127Z,993.6
2019-01-24T05:00:05.469Z,993.7
2019-01-24T05:01:06.816Z,993.7
2019-01-24T05:02:08.162Z,993.7
2019-01-24T05:03:09.507Z,993.7
2019-01-24T05:04:10.846Z,993.8
2019-01-24T05:05:12.204Z,993.7
2019-01-24T05:06:13.550Z,993.8
2019-01-24T05:07:14.889Z,993.7
2019-01-24T05:08:16.252Z,993.7
2019-01-24T05:09:17.594Z,993.8
2019-01-24T05:10:18.941Z,993.7
2019-01-24T05:11:20.275Z,993.7
2019-01-24T05:12:21.616Z,993.8
2019-01-24T05:13:22.957Z,993.8
2019-01-24T05:14:24.308Z,993.8
2019-01-24T05:15:25.645Z,993.8
2019-01-24T05:16:26.990Z,993.8
2019-01-24T05:17:28.394Z,993.8
2019-01-24T05:18:29.738Z,993.8
2019-01-24T05:19:31.079Z,993.9
2019-01-24T05:20:32.431Z,993.9
2019-01-24T05:21:33.775Z,993.9
2019-01-24T05:22:35.115Z,993.9
2019-01-24T05:23:36.462Z,993.9
2019-01-24T05:24:37.799Z,994.0
2019-01-24T05:25:39.145Z,994.0
2019-01-24T05:26:40.491Z,994.0
2019-01-24T05:27:41.852Z,994.1
2019-01-24T05:28:43.182Z,994.1
2019-01-24T05:29:44.519Z,994.0
2019-01-24T05:30:45.874Z,994.0
2019-01-24T05:31:47.220Z,994.1
2019-01-24T05:32:48.566Z,994.0
2019-01-24T05:33:49.930Z,994.1
2019-01-24T05:34:51.271Z,994.1
2019-01-24T05:35:52.619Z,994.1
2019-01-24T05:36:53.954Z,994.1
2019-01-24T05:37:55.291Z,994.1
2019-01-24T05:38:56.641Z,994.1
2019-01-24T05:39:57.985Z,994.1
2019-01-24T05:40:59.330Z,994.1
2019-01-24T05:42:00.680Z,994.1
2019-01-24T05:43:02.027Z,994.2
2019-01-24T05:44:03.368Z,994.2
2019-01-24T05:45:04.712Z,994.2
2019-01-24T05:46:06.055Z,994.2
2019-01-24T05:47:07.400Z,994.2
2019-01-24T05:48:08.768Z,994.2
2019-01-24T05:49:10.120Z,994.2
2019-01-24T05:50:11.460Z,994.2
2019-01-24T05:51:12.802Z,994.3
2019-01-24T05:52:19.351Z,994.3
2019-01-24T05:53:15.451Z,994.3
2019-01-24T05:54:16.801Z,994.3
2019-01-24T05:55:18.149Z,994.3
2019-01-24T05:56:19.488Z,994.3
2019-01-24T05:57:20.837Z,994.3
2019-01-24T05:58:22.182Z,994.4
2019-01-24T05:59:23.541Z,994.3
2019-01-24T06:00:24.883Z,994.3
2019-01-24T06:01:26.273Z,994.4
2019-01-24T06:02:27.611Z,994.4
2019-01-24T06:03:29.037Z,994.4
2019-01-24T06:04:30.402Z,994.4
2019-01-24T06:05:31.752Z,994.4
2019-01-24T06:06:33.136Z,994.4
2019-01-24T06:07:34.537Z,994.5
2019-01-24T06:08:35.938Z,994.5
2019-01-24T06:09:37.277Z,994.5
2019-01-24T06:10:38.659Z,994.5
2019-01-24T06:11:40.006Z,994.6
2019-01-24T06:12:41.348Z,994.5
2019-01-24T06:13:42.692Z,994.5
2019-01-24T06:14:44.040Z,994.5
2019-01-24T06:15:45.385Z,994.6
2019-01-24T06:16:46.725Z,994.6
2019-01-24T06:17:48.076Z,994.6
2019-01-24T06:18:49.418Z,994.6
2019-01-24T06:19:50.762Z,994.6
2019-01-24T06:20:52.107Z,994.6
2019-01-24T06:21:53.461Z,994.6
2019-01-24T06:22:54.808Z,994.6
2019-01-24T06:23:56.153Z,994.6
2019-01-24T06:24:57.507Z,994.7
2019-01-24T06:25:58.854Z,994.7
2019-01-24T06:27:00.201Z,994.7
2019-01-24T06:28:01.543Z,994.7
2019-01-24T06:29:03.038Z,994.7
2019-01-24T06:30:04.196Z,994.7
2019-01-24T06:31:05.534Z,994.7
2019-01-24T06:32:06.896Z,994.8
2019-01-24T06:33:08.236Z,994.8
2019-01-24T06:34:09.580Z,994.8
2019-01-24T06:35:10.928Z,994.9
2019-01-24T06:36:12.297Z,994.9
2019-01-24T06:37:13.671Z,994.9
2019-01-24T06:38:15.001Z,994.9
2019-01-24T06:39:16.351Z,994.9
2019-01-24T06:40:17.702Z,994.9
2019-01-24T06:41:19.051Z,994.9
2019-01-24T06:42:59.913Z,994.9
2019-01-24T06:44:01.260Z,994.9
2019-01-24T06:45:02.611Z,995.0
2019-01-24T06:46:03.946Z,995.0
2019-01-24T06:47:05.301Z,995.0
2019-01-24T06:48:06.648Z,995.0
2019-01-24T06:49:07.986Z,995.0
2019-01-24T06:50:09.336Z,995.0
2019-01-24T06:51:10.674Z,995.0
2019-01-24T06:52:12.022Z,995.1
2019-01-24T06:53:13.362Z,995.1
2019-01-24T06:54:14.711Z,995.1
2019-01-24T06:55:16.053Z,995.1
2019-01-24T06:56:17.402Z,995.1
2019-01-24T06:57:18.758Z,995.2
2019-01-24T06:58:20.101Z,995.2
2019-01-24T06:59:21.451Z,995.2
2019-01-24T07:00:22.812Z,995.2
2019-01-24T07:01:24.149Z,995.2
2019-01-24T07:02:25.507Z,995.2
2019-01-24T07:03:26.853Z,995.2
2019-01-24T07:04:28.212Z,995.2
2019-01-24T07:05:29.552Z,995.3
2019-01-24T07:06:30.927Z,995.2
2019-01-24T07:07:32.277Z,995.2
2019-01-24T07:08:33.631Z,995.3
2019-01-24T07:09:34.974Z,995.2
2019-01-24T07:10:36.316Z,995.3
2019-01-24T07:11:37.668Z,995.3
2019-01-24T07:12:39.014Z,995.3
2019-01-24T07:13:40.364Z,995.2
2019-01-24T07:14:41.715Z,995.3
2019-01-24T07:15:43.062Z,995.3
2019-01-24T07:16:44.473Z,995.3
2019-01-24T07:17:45.827Z,995.3
2019-01-24T07:18:47.187Z,995.3
2019-01-24T07:19:48.536Z,995.3
2019-01-24T07:20:49.883Z,995.4
2019-01-24T07:21:51.241Z,995.4
2019-01-24T07:22:52.592Z,995.4
2019-01-24T07:23:53.942Z,995.4
2019-01-24T07:24:55.303Z,995.4
2019-01-24T07:25:56.660Z,995.5
2019-01-24T07:26:58.012Z,995.4
2019-01-24T07:27:59.364Z,995.5
2019-01-24T07:29:00.710Z,995.5
2019-01-24T07:30:02.045Z,995.5
2019-01-24T07:31:03.401Z,995.5
2019-01-24T07:32:04.754Z,995.6
2019-01-24T07:33:06.102Z,995.6
2019-01-24T07:34:07.447Z,995.6
2019-01-24T07:35:08.827Z,995.7
2019-01-24T07:36:10.172Z,995.7
2019-01-24T07:37:11.516Z,995.7
2019-01-24T07:38:12.868Z,995.7
2019-01-24T07:39:14.229Z,995.7
2019-01-24T07:40:15.582Z,995.7
2019-01-24T07:41:16.934Z,995.7
2019-01-24T07:42:18.284Z,995.7
2019-01-24T07:43:19.629Z,995.7
2019-01-24T07:44:20.989Z,995.7
2019-01-24T07:45:22.347Z,995.7
2019-01-24T07:46:23.682Z,995.7
2019-01-24T07:47:25.035Z,995.7
2019-01-24T07:48:26.390Z,995.7
2019-01-24T07:49:27.739Z,995.8
2019-01-24T07:50:29.074Z,995.8
2019-01-24T07:51:30.429Z,995.8
2019-01-24T07:52:31.779Z,995.8
2019-01-24T07:53:33.182Z,995.9
2019-01-24T07:54:34.526Z,995.9
2019-01-24T07:55:35.967Z,995.9
2019-01-24T07:56:37.315Z,995.9
2019-01-24T07:57:38.670Z,995.9
2019-01-24T07:58:40.027Z,995.9
2019-01-24T07:59:41.368Z,995.9
2019-01-24T08:00:42.733Z,995.9
2019-01-24T08:01:44.088Z,995.9
2019-01-24T08:02:45.430Z,995.9
2019-01-24T08:03:46.787Z,996.0
2019-01-24T08:04:48.138Z,995.9
2019-01-24T08:05:49.488Z,995.9
2019-01-24T08:06:50.848Z,996.0
2019-01-24T08:07:52.204Z,996.0
2019-01-24T08:08:53.565Z,996.0
2019-01-24T08:09:54.908Z,996.0
2019-01-24T08:10:56.263Z,996.0
2019-01-24T08:11:57.614Z,996.0
2019-01-24T08:12:58.963Z,996.0
2019-01-24T08:14:00.318Z,996.0
2019-01-24T08:15:01.663Z,996.0
2019-01-24T08:16:03.019Z,996.1
2019-01-24T08:17:04.363Z,996.0
2019-01-24T08:18:05.712Z,996.1
2019-01-24T08:19:07.065Z,996.1
2019-01-24T08:20:08.423Z,996.1
2019-01-24T08:21:09.798Z,996.1
2019-01-24T08:22:11.149Z,996.1
2019-01-24T08:23:12.506Z,996.1
2019-01-24T08:24:13.841Z,996.1
2019-01-24T08:25:15.197Z,996.1
2019-01-24T08:26:16.543Z,996.1
2019-01-24T08:27:17.898Z,996.1
2019-01-24T08:28:19.252Z,996.1
2019-01-24T08:29:20.612Z,996.1
2019-01-24T08:30:21.970Z,996.1
2019-01-24T08:31:23.341Z,996.1
2019-01-24T08:32:24.684Z,996.1
2019-01-24T08:33:26.043Z,996.1
2019-01-24T08:34:27.400Z,996.1
2019-01-24T08:35:28.746Z,996.1
2019-01-24T08:36:30.120Z,996.1
2019-01-24T08:37:31.470Z,996.1
2019-01-24T08:38:32.819Z,996.1
2019-01-24T08:39:34.185Z,996.1
2019-01-24T08:40:35.534Z,996.2
2019-01-24T08:41:36.913Z,996.2
2019-01-24T08:42:38.279Z,996.2
2019-01-24T08:43:39.624Z,996.1
2019-01-24T08:44:40.976Z,996.2
2019-01-24T08:45:42.336Z,996.2
2019-01-24T08:46:43.697Z,996.2
2019-01-24T08:47:45.043Z,996.2
2019-01-24T08:48:46.416Z,996.2
2019-01-24T08:49:47.790Z,996.2
2019-01-24T08:50:49.160Z,996.2
2019-01-24T08:51:50.517Z,996.3
2019-01-24T08:52:51.877Z,996.3
2019-01-24T08:53:53.245Z,996.3
2019-01-24T08:54:54.590Z,996.3
2019-01-24T08:55:55.945Z,996.3
2019-01-24T08:56:57.306Z,996.3
2019-01-24T08:57:58.660Z,996.3
2019-01-24T08:59:00.011Z,996.3
2019-01-24T09:00:01.376Z,996.3
2019-01-24T09:01:02.726Z,996.3
2019-01-24T09:02:04.076Z,996.4
2019-01-24T09:03:05.435Z,996.4
2019-01-24T09:04:06.781Z,996.4
2019-01-24T09:05:08.137Z,996.3
2019-01-24T09:06:09.498Z,996.3
2019-01-24T09:07:10.854Z,996.3
2019-01-24T09:08:12.211Z,996.4
2019-01-24T09:09:13.606Z,996.3
2019-01-24T09:10:14.966Z,996.4
2019-01-24T09:11:16.319Z,996.3
2019-01-24T09:12:17.671Z,996.4
2019-01-24T09:13:19.030Z,996.5
2019-01-24T09:14:20.376Z,996.5
2019-01-24T09:15:21.732Z,996.5
2019-01-24T09:16:23.081Z,996.5
2019-01-24T09:17:24.435Z,996.5
2019-01-24T09:18:25.798Z,996.5
2019-01-24T09:19:27.155Z,996.5
2019-01-24T09:20:28.511Z,996.6
2019-01-24T09:21:29.871Z,996.6
2019-01-24T09:22:31.225Z,996.6
2019-01-24T09:23:32.571Z,996.6
2019-01-24T09:24:33.920Z,996.5
2019-01-24T09:25:35.273Z,996.6
2019-01-24T09:26:36.629Z,996.6
2019-01-24T09:27:37.997Z,996.6
2019-01-24T09:28:39.358Z,996.6
2019-01-24T09:29:40.739Z,996.7
2019-01-24T09:30:42.125Z,996.7
2019-01-24T09:31:43.479Z,996.7
2019-01-24T09:32:44.834Z,996.8
2019-01-24T09:33:46.189Z,996.8
2019-01-24T09:34:47.549Z,996.8
2019-01-24T09:35:48.930Z,996.8
2019-01-24T09:36:50.282Z,996.8
2019-01-24T09:37:51.629Z,996.8
2019-01-24T09:38:53.004Z,996.8
2019-01-24T09:39:54.355Z,996.8
2019-01-24T09:40:55.705Z,996.9
2019-01-24T09:41:57.071Z,996.9
2019-01-24T09:42:58.420Z,996.9
2019-01-24T09:43:59.772Z,996.9
2019-01-24T09:45:01.129Z,996.9
2019-01-24T09:46:02.480Z,996.9
2019-01-24T09:47:03.876Z,997.0
2019-01-24T09:48:05.254Z,997.0
2019-01-24T09:49:06.615Z,997.0
2019-01-24T09:50:07.982Z,997.0
2019-01-24T09:51:09.336Z,997.1
2019-01-24T09:52:10.687Z,997.1
2019-01-24T09:53:12.055Z,997.1
2019-01-24T09:54:13.428Z,997.2
2019-01-24T09:55:14.825Z,997.1
2019-01-24T09:56:16.190Z,997.2
2019-01-24T09:57:17.597Z,997.2
2019-01-24T09:58:19.019Z,997.2
2019-01-24T09:59:20.465Z,997.2
2019-01-24T10:00:21.886Z,997.2
2019-01-24T10:01:23.311Z,997.3
2019-01-24T10:02:24.800Z,997.3
2019-01-24T10:03:26.270Z,997.3
2019-01-24T10:04:27.671Z,997.4
2019-01-24T10:05:29.125Z,997.3
2019-01-24T10:06:36.077Z,997.4
2019-01-24T10:07:31.943Z,997.4
2019-01-24T10:08:33.356Z,997.4
2019-01-24T10:09:34.790Z,997.4
2019-01-24T10:10:36.266Z,997.4
2019-01-24T10:11:37.816Z,997.4
2019-01-24T10:12:39.349Z,997.4
2019-01-24T10:13:40.782Z,997.3
2019-01-24T10:14:42.299Z,997.4
2019-01-24T10:15:43.790Z,997.4
2019-01-24T10:16:45.307Z,997.4
2019-01-24T10:17:46.821Z,997.4
2019-01-24T10:18:48.324Z,997.4
2019-01-24T10:19:49.830Z,997.4
2019-01-24T10:20:51.365Z,997.5
2019-01-24T10:21:52.844Z,997.5
2019-01-24T10:22:54.248Z,997.4
2019-01-24T10:23:55.673Z,997.5
2019-01-24T10:24:57.073Z,997.4
2019-01-24T10:25:58.525Z,997.4
2019-01-24T10:26:59.935Z,997.4
2019-01-24T10:28:01.326Z,997.4
2019-01-24T10:29:02.826Z,997.4
2019-01-24T10:30:04.227Z,997.4
2019-01-24T10:31:05.612Z,997.5
2019-01-24T10:32:07.027Z,997.5
2019-01-24T10:33:08.395Z,997.5
2019-01-24T10:34:09.765Z,997.4
2019-01-24T10:35:11.122Z,997.4
2019-01-24T10:36:12.486Z,997.5
2019-01-24T10:37:13.850Z,997.4
2019-01-24T10:38:15.216Z,997.4
2019-01-24T10:39:16.578Z,997.5
2019-01-24T10:40:17.934Z,997.5
2019-01-24T10:41:19.287Z,997.5
2019-01-24T10:42:20.667Z,997.5
2019-01-24T10:43:22.039Z,997.5
2019-01-24T10:44:23.391Z,997.5
2019-01-24T10:45:24.749Z,997.4
2019-01-24T10:46:26.125Z,997.4
2019-01-24T10:47:27.481Z,997.5
2019-01-24T10:48:28.846Z,997.4
2019-01-24T10:49:30.207Z,997.4
2019-01-24T10:50:31.572Z,997.4
2019-01-24T10:51:32.938Z,997.5
2019-01-24T10:52:34.318Z,997.4
2019-01-24T10:53:35.682Z,997.4
2019-01-24T10:54:37.061Z,997.4
2019-01-24T10:55:38.411Z,997.4
2019-01-24T10:56:39.788Z,997.4
2019-01-24T10:57:41.163Z,997.4
2019-01-24T10:58:42.516Z,997.4
2019-01-24T10:59:43.872Z,997.4
2019-01-24T11:00:45.231Z,997.4
2019-01-24T11:01:46.609Z,997.4
2019-01-24T11:02:47.984Z,997.5
2019-01-24T11:03:49.347Z,997.4
2019-01-24T11:04:50.748Z,997.4
2019-01-24T11:05:52.107Z,997.4
2019-01-24T11:06:53.467Z,997.5
2019-01-24T11:07:54.869Z,997.5
2019-01-24T11:08:56.237Z,997.5
2019-01-24T11:09:57.606Z,997.5
2019-01-24T11:10:58.983Z,997.5
2019-01-24T11:12:00.378Z,997.5
2019-01-24T11:13:01.736Z,997.5
2019-01-24T11:14:03.123Z,997.6
2019-01-24T11:15:04.517Z,997.5
2019-01-24T11:16:05.890Z,997.5
2019-01-24T11:17:07.249Z,997.5
2019-01-24T11:18:08.625Z,997.5
2019-01-24T11:19:09.983Z,997.5
2019-01-24T11:20:11.354Z,997.6
2019-01-24T11:21:12.742Z,997.5
2019-01-24T11:22:14.130Z,997.5
2019-01-24T11:23:15.532Z,997.5
2019-01-24T11:24:16.896Z,997.5
2019-01-24T11:25:18.273Z,997.6
2019-01-24T11:26:19.645Z,997.5
2019-01-24T11:27:21.008Z,997.5
2019-01-24T11:28:22.398Z,997.5
2019-01-24T11:29:23.782Z,997.4
2019-01-24T11:30:25.166Z,997.5
2019-01-24T11:31:26.528Z,997.5
2019-01-24T11:32:27.888Z,997.4
2019-01-24T11:33:29.251Z,997.5
2019-01-24T11:34:30.626Z,997.4
2019-01-24T11:35:32.006Z,997.5
2019-01-24T11:36:33.359Z,997.4
2019-01-24T11:37:34.723Z,997.4
2019-01-24T11:38:36.127Z,997.4
2019-01-24T11:39:37.491Z,997.4
2019-01-24T11:40:38.860Z,997.4
2019-01-24T11:41:40.213Z,997.4
2019-01-24T11:42:41.569Z,997.4
2019-01-24T11:43:42.921Z,997.4
2019-01-24T11:44:44.278Z,997.4
2019-01-24T11:45:45.639Z,997.4
2019-01-24T11:46:47.016Z,997.3
2019-01-24T11:47:48.382Z,997.4
2019-01-24T11:48:49.753Z,997.4
2019-01-24T11:49:51.109Z,997.4
2019-01-24T11:50:52.483Z,997.4
2019-01-24T11:51:53.889Z,997.4
2019-01-24T11:52:55.288Z,997.4
2019-01-24T11:53:56.655Z,997.4
2019-01-24T11:54:58.020Z,997.4
2019-01-24T11:55:59.381Z,997.4
2019-01-24T11:57:00.728Z,997.4
2019-01-24T11:58:02.107Z,997.4
2019-01-24T11:59:03.452Z,997.4
2019-01-24T12:00:04.808Z,997.4
2019-01-24T12:01:06.162Z,997.4
2019-01-24T12:02:07.522Z,997.5
2019-01-24T12:03:08.883Z,997.5
2019-01-24T12:04:10.242Z,997.5
2019-01-24T12:05:11.613Z,997.4
2019-01-24T12:06:13.004Z,997.4
2019-01-24T12:07:14.383Z,997.4
2019-01-24T12:08:15.728Z,997.4
2019-01-24T12:09:17.097Z,997.4
2019-01-24T12:10:18.489Z,997.4
2019-01-24T12:11:19.864Z,997.4
2019-01-24T12:12:21.276Z,997.4
2019-01-24T12:13:22.724Z,997.4
2019-01-24T12:14:24.182Z,997.5
2019-01-24T12:15:25.592Z,997.5
2019-01-24T12:16:26.998Z,997.4
2019-01-24T12:17:28.357Z,997.4
2019-01-24T12:18:29.816Z,997.4
2019-01-24T12:19:31.227Z,997.4
2019-01-24T12:20:32.709Z,997.4
2019-01-24T12:21:34.226Z,997.4
2019-01-24T12:22:35.623Z,997.4
2019-01-24T12:23:37.016Z,997.3
2019-01-24T12:24:38.460Z,997.3
2019-01-24T12:25:39.908Z,997.4
2019-01-24T12:26:41.358Z,997.3
2019-01-24T12:27:42.831Z,997.4
2019-01-24T12:28:44.223Z,997.4
2019-01-24T12:29:45.634Z,997.4
2019-01-24T12:30:47.092Z,997.4
2019-01-24T12:31:48.546Z,997.4
2019-01-24T12:32:49.987Z,997.4
2019-01-24T12:33:51.429Z,997.4
2019-01-24T12:34:52.883Z,997.4
2019-01-24T12:35:54.353Z,997.3
2019-01-24T12:36:55.759Z,997.4
2019-01-24T12:37:57.191Z,997.4
2019-01-24T12:38:58.618Z,997.4
2019-01-24T12:40:00.037Z,997.4
2019-01-24T12:41:01.533Z,997.4
2019-01-24T12:42:03.002Z,997.3
2019-01-24T12:43:04.418Z,997.3
2019-01-24T12:44:45.283Z,997.3
2019-01-24T12:45:46.639Z,997.3
2019-01-24T12:46:47.996Z,997.3
2019-01-24T12:47:49.357Z,997.3
2019-01-24T12:48:50.720Z,997.3
2019-01-24T12:49:52.079Z,997.3
2019-01-24T12:50:53.435Z,997.3
2019-01-24T12:51:54.797Z,997.3
2019-01-24T12:52:56.151Z,997.3
2019-01-24T12:53:57.509Z,997.3
2019-01-24T12:54:58.864Z,997.3
2019-01-24T12:56:00.219Z,997.3
2019-01-24T12:57:01.579Z,997.4
2019-01-24T12:58:02.954Z,997.4
2019-01-24T12:59:04.317Z,997.4
2019-01-24T13:00:05.672Z,997.4
2019-01-24T13:01:07.025Z,997.4
2019-01-24T13:02:08.408Z,997.4
2019-01-24T13:03:09.764Z,997.4
2019-01-24T13:04:11.114Z,997.4
2019-01-24T13:05:12.477Z,997.4
2019-01-24T13:06:13.824Z,997.5
2019-01-24T13:07:18.480Z,997.5
2019-01-24T13:08:16.503Z,997.5
2019-01-24T13:09:17.846Z,997.5
2019-01-24T13:10:19.212Z,997.5
2019-01-24T13:11:20.572Z,997.5
2019-01-24T13:12:21.940Z,997.5